Time;durP1;ratioP1;P1;durP2;ratioP2;P2;SDS_P1;SDS_P2;PMS_P1;PMS_P2;Temp;Humidity;BMP_temperature;BMP_pressure;BME280_temperature;BME280_humidity;BME280_pressure;Samples;Min_cycle;Max_cycle;Signal;HPM_P1;HPM_P2
2023/08/19 00:01:10;;;;;;;7.43;6.18;;;21.20;99.90;;;;;;4065905;29;20064;-66
2023/08/19 00:03:11;;;;;;;9.35;6.57;;;21.20;99.90;;;;;;4065059;29;20071;-64
2023/08/19 00:05:13;;;;;;;9.27;6.25;;;21.20;99.90;;;;;;4066501;29;20039;-64
2023/08/19 00:07:15;;;;;;;7.32;6.28;;;21.20;99.90;;;;;;4065124;29;20036;-63
2023/08/19 00:09:16;;;;;;;6.57;5.88;;;21.20;99.90;;;;;;4066406;29;20028;-67
2023/08/19 00:11:17;;;;;;;6.05;5.47;;;21.20;99.90;;;;;;4065050;29;20291;-62
2023/08/19 00:13:18;;;;;;;7.15;5.78;;;21.20;99.90;;;;;;4066391;29;20493;-65
2023/08/19 00:15:20;;;;;;;8.20;6.03;;;21.20;99.90;;;;;;4065025;29;20077;-64
2023/08/19 00:17:22;;;;;;;7.55;5.50;;;21.20;99.90;;;;;;4066125;29;20044;-66
2023/08/19 00:19:23;;;;;;;6.75;6.05;;;21.20;99.90;;;;;;4065146;29;20040;-64
2023/08/19 00:21:25;;;;;;;10.45;6.47;;;21.20;99.90;;;;;;4065999;29;20036;-62
2023/08/19 00:23:26;;;;;;;9.30;5.78;;;21.20;99.90;;;;;;4064977;29;20088;-64
2023/08/19 00:25:27;;;;;;;8.30;6.38;;;21.20;99.90;;;;;;4065724;29;20061;-68
2023/08/19 00:27:28;;;;;;;6.57;5.88;;;21.10;99.90;;;;;;4063430;29;20088;-64
2023/08/19 00:29:29;;;;;;;12.00;6.38;;;21.10;99.90;;;;;;4065197;29;20556;-66
2023/08/19 00:31:30;;;;;;;8.52;6.22;;;21.00;99.90;;;;;;4065096;29;20044;-68
2023/08/19 00:33:31;;;;;;;8.57;7.05;;;20.90;99.90;;;;;;4064942;29;20036;-63
2023/08/19 00:35:33;;;;;;;12.02;7.13;;;20.80;99.90;;;;;;4065645;29;20036;-64
2023/08/19 00:37:35;;;;;;;11.30;6.70;;;20.70;99.90;;;;;;4064778;29;20036;-67
2023/08/19 00:39:36;;;;;;;8.30;7.03;;;20.60;99.90;;;;;;4065752;29;20040;-65
2023/08/19 00:41:38;;;;;;;9.57;7.70;;;20.60;99.90;;;;;;4064599;29;20036;-67
2023/08/19 00:43:39;;;;;;;10.98;7.22;;;20.50;99.90;;;;;;4065617;29;20517;-65
2023/08/19 00:45:44;;;;;;;8.30;7.18;;;20.50;99.90;;;;;;4064476;29;20044;-64
2023/08/19 00:47:46;;;;;;;10.05;7.85;;;20.50;99.90;;;;;;4064528;29;20104;-67
2023/08/19 00:49:48;;;;;;;11.20;7.30;;;20.50;99.90;;;;;;4063681;29;20374;-66
2023/08/19 00:51:49;;;;;;;15.27;7.00;;;20.60;99.90;;;;;;4064657;29;20884;-67
2023/08/19 00:53:52;;;;;;;9.88;7.10;;;20.60;99.90;;;;;;4062985;29;20036;-67
2023/08/19 00:55:53;;;;;;;12.20;7.47;;;20.60;99.90;;;;;;4065533;29;20095;-64
2023/08/19 00:57:55;;;;;;;8.30;6.20;;;20.70;99.90;;;;;;4064696;29;20012;-65
2023/08/19 00:59:56;;;;;;;7.63;6.70;;;20.60;99.90;;;;;;4064829;29;20073;-66
2023/08/19 01:01:57;;;;;;;7.10;6.32;;;20.70;99.90;;;;;;4064761;29;20044;-67
2023/08/19 01:03:58;;;;;;;8.07;6.22;;;20.70;99.90;;;;;;4064857;29;20465;-67
2023/08/19 01:06:25;;;;;;;9.57;6.20;;;20.70;99.90;;;;;;4064531;29;20051;-67
2023/08/19 01:08:55;;;;;;;8.63;6.68;;;20.70;99.90;;;;;;4063730;29;20048;-61
2023/08/19 01:11:10;;;;;;;7.28;6.45;;;20.60;99.90;;;;;;4063800;29;20513;-62
2023/08/19 01:13:18;;;;;;;6.88;6.18;;;20.60;99.90;;;;;;4065502;29;20438;-65
2023/08/19 01:15:29;;;;;;;9.90;7.30;;;20.60;99.90;;;;;;4064611;29;20084;-66
2023/08/19 01:17:32;;;;;;;8.45;6.40;;;20.60;99.90;;;;;;4065340;29;20445;-64
2023/08/19 01:19:33;;;;;;;9.43;6.25;;;20.60;99.90;;;;;;4064144;29;20039;-65
2023/08/19 01:21:35;;;;;;;9.18;6.10;;;20.50;99.90;;;;;;4064407;29;20039;-67
2023/08/19 01:23:43;;;;;;;9.75;6.88;;;20.50;99.90;;;;;;4063951;29;20181;-64
2023/08/19 01:25:45;;;;;;;6.78;6.07;;;20.50;99.90;;;;;;4064437;29;20040;-64
2023/08/19 01:27:46;;;;;;;7.80;6.55;;;20.50;99.90;;;;;;4064061;29;20503;-62
2023/08/19 01:29:47;;;;;;;10.18;6.45;;;20.50;99.90;;;;;;4064343;29;20076;-63
2023/08/19 01:31:48;;;;;;;12.10;7.18;;;20.50;99.90;;;;;;4064782;29;20358;-67
2023/08/19 01:33:49;;;;;;;7.72;6.20;;;20.50;99.90;;;;;;4063269;29;20052;-63
2023/08/19 01:36:18;;;;;;;8.88;6.03;;;20.50;99.90;;;;;;4064741;29;20112;-64
2023/08/19 01:39:03;;;;;;;6.60;6.00;;;20.50;99.90;;;;;;4064129;29;20096;-64
2023/08/19 01:41:04;;;;;;;10.68;6.15;;;20.40;99.90;;;;;;4035596;29;20207;-64
2023/08/19 01:43:10;;;;;;;9.57;6.45;;;20.40;99.90;;;;;;4064635;29;20572;-63
2023/08/19 01:45:12;;;;;;;6.85;6.00;;;20.40;99.90;;;;;;4064592;29;20024;-64
2023/08/19 01:47:16;;;;;;;8.88;6.63;;;20.30;99.90;;;;;;4064392;29;20047;-64
2023/08/19 01:49:17;;;;;;;10.15;6.22;;;20.30;99.90;;;;;;4064315;29;20024;-63
2023/08/19 01:51:19;;;;;;;8.38;6.30;;;20.30;99.90;;;;;;4064225;29;20088;-63
2023/08/19 01:53:20;;;;;;;8.32;6.93;;;20.30;99.90;;;;;;4064114;29;20032;-63
2023/08/19 01:55:22;;;;;;;9.27;6.40;;;20.30;99.90;;;;;;4063426;29;20453;-63
2023/08/19 01:57:27;;;;;;;7.38;6.30;;;20.30;99.90;;;;;;4078437;29;20553;-62
2023/08/19 01:59:28;;;;;;;12.68;6.80;;;20.20;99.90;;;;;;4065352;29;20079;-63
2023/08/19 02:01:30;;;;;;;7.70;6.72;;;20.20;99.90;;;;;;4067498;29;20485;-63
2023/08/19 02:03:31;;;;;;;6.72;5.90;;;20.20;99.90;;;;;;4066851;29;20032;-62
2023/08/19 02:05:32;;;;;;;7.22;6.53;;;20.20;99.90;;;;;;4066319;29;20119;-67
2023/08/19 02:07:33;;;;;;;8.63;6.32;;;20.20;99.90;;;;;;4066350;29;20564;-64
2023/08/19 02:09:34;;;;;;;9.15;6.47;;;20.10;99.90;;;;;;4068064;29;20036;-65
2023/08/19 02:11:35;;;;;;;8.82;6.63;;;20.10;99.90;;;;;;4066794;29;20036;-62
2023/08/19 02:13:36;;;;;;;7.90;6.93;;;20.10;99.90;;;;;;4067711;29;20044;-64
2023/08/19 02:15:38;;;;;;;8.18;6.43;;;20.10;99.90;;;;;;4067122;29;20036;-64
2023/08/19 02:17:39;;;;;;;9.45;6.60;;;20.10;99.90;;;;;;4065424;29;20047;-62
2023/08/19 02:19:40;;;;;;;8.43;6.90;;;20.00;99.90;;;;;;4066969;29;20103;-68
2023/08/19 02:21:41;;;;;;;10.35;6.53;;;20.00;99.90;;;;;;4067061;29;20075;-63
2023/08/19 02:23:42;;;;;;;9.05;7.18;;;20.00;99.90;;;;;;4067120;29;20048;-63
2023/08/19 02:25:43;;;;;;;7.72;7.00;;;20.00;99.90;;;;;;4066860;29;20103;-64
2023/08/19 02:27:45;;;;;;;10.30;7.43;;;19.90;99.90;;;;;;4067472;29;20071;-64
2023/08/19 02:29:46;;;;;;;8.90;6.57;;;19.80;99.90;;;;;;4066297;29;20509;-69
2023/08/19 02:31:47;;;;;;;8.35;7.30;;;19.80;99.90;;;;;;4067645;29;20095;-66
2023/08/19 02:33:48;;;;;;;9.93;7.10;;;19.70;99.90;;;;;;4066715;29;20103;-64
2023/08/19 02:35:50;;;;;;;7.13;6.47;;;19.70;99.90;;;;;;4066732;29;20127;-67
2023/08/19 02:37:51;;;;;;;7.57;6.80;;;19.70;99.90;;;;;;4066231;29;20059;-66
2023/08/19 02:39:52;;;;;;;9.38;6.75;;;19.70;99.90;;;;;;4067505;29;20044;-64
2023/08/19 02:41:53;;;;;;;12.90;7.00;;;19.80;99.90;;;;;;4066373;29;20099;-66
2023/08/19 02:43:55;;;;;;;11.50;6.93;;;19.70;99.90;;;;;;4067552;29;20096;-67
2023/08/19 02:45:57;;;;;;;11.07;6.65;;;19.70;99.90;;;;;;4066396;29;20528;-67
2023/08/19 02:47:59;;;;;;;11.00;7.10;;;19.70;99.90;;;;;;4067222;29;20033;-68
2023/08/19 02:50:00;;;;;;;11.88;7.13;;;19.70;99.90;;;;;;4066262;29;20044;-66
2023/08/19 02:52:01;;;;;;;8.63;7.28;;;19.70;99.90;;;;;;4066865;29;20028;-67
2023/08/19 02:54:03;;;;;;;12.43;6.60;;;19.70;99.90;;;;;;4066846;29;20406;-65
2023/08/19 02:56:07;;;;;;;8.05;6.85;;;19.70;99.90;;;;;;4066358;29;20626;-66
2023/08/19 02:58:08;;;;;;;7.68;6.40;;;19.70;99.90;;;;;;4067012;29;20088;-66
2023/08/19 03:00:10;;;;;;;8.82;6.97;;;19.70;99.90;;;;;;4065876;29;20428;-68
2023/08/19 03:02:12;;;;;;;11.27;6.78;;;19.70;99.90;;;;;;4066679;29;20044;-63
2023/08/19 03:04:13;;;;;;;8.93;7.07;;;19.70;99.90;;;;;;4066113;29;20072;-67
2023/08/19 03:06:14;;;;;;;8.40;7.50;;;19.70;99.90;;;;;;4066948;29;20352;-64
2023/08/19 03:08:15;;;;;;;7.88;7.07;;;19.70;99.90;;;;;;4066098;29;20498;-68
2023/08/19 03:10:16;;;;;;;10.48;6.68;;;19.70;99.90;;;;;;4066372;29;20036;-65
2023/08/19 03:12:17;;;;;;;8.85;7.03;;;19.60;99.90;;;;;;4065952;29;20036;-67
2023/08/19 03:14:18;;;;;;;10.98;7.43;;;19.60;99.90;;;;;;4066997;29;20104;-63
2023/08/19 03:16:19;;;;;;;7.93;6.78;;;19.60;99.90;;;;;;4065865;29;20405;-67
2023/08/19 03:18:21;;;;;;;8.10;7.30;;;19.60;99.90;;;;;;4067034;29;20528;-67
2023/08/19 03:20:22;;;;;;;12.02;7.85;;;19.60;99.90;;;;;;4065721;29;20107;-68
2023/08/19 03:22:23;;;;;;;12.88;7.38;;;19.60;99.90;;;;;;4066719;29;20475;-68
2023/08/19 03:24:24;;;;;;;10.40;7.93;;;19.50;99.90;;;;;;4066169;29;20441;-65
2023/08/19 03:26:25;;;;;;;12.07;7.43;;;19.50;99.90;;;;;;4066214;29;20195;-68
2023/08/19 03:28:26;;;;;;;12.00;7.50;;;19.50;99.90;;;;;;4065739;29;20048;-65
2023/08/19 03:30:28;;;;;;;10.05;7.22;;;19.50;99.90;;;;;;4065817;29;20060;-65
2023/08/19 03:32:29;;;;;;;10.82;7.57;;;19.50;99.90;;;;;;4066861;29;20040;-67
2023/08/19 03:34:30;;;;;;;9.70;7.65;;;19.50;99.90;;;;;;4065992;29;20115;-67
2023/08/19 03:36:31;;;;;;;9.70;6.82;;;19.50;99.90;;;;;;4066253;29;20568;-66
2023/08/19 03:38:32;;;;;;;7.95;7.15;;;19.60;99.90;;;;;;4065590;29;20088;-66
2023/08/19 03:40:33;;;;;;;7.78;6.97;;;19.60;99.90;;;;;;4066713;29;20096;-67
2023/08/19 03:42:34;;;;;;;7.45;6.75;;;19.50;99.90;;;;;;4065563;29;20020;-65
2023/08/19 03:44:35;;;;;;;8.02;7.18;;;19.50;99.90;;;;;;4067004;29;20040;-67
2023/08/19 03:46:37;;;;;;;11.45;7.22;;;19.50;99.90;;;;;;4065497;29;20051;-67
2023/08/19 03:48:38;;;;;;;11.45;6.80;;;19.50;99.90;;;;;;4066578;29;20044;-67
2023/08/19 03:50:39;;;;;;;11.52;7.40;;;19.50;99.90;;;;;;4065325;29;20370;-66
2023/08/19 03:52:40;;;;;;;10.45;7.70;;;19.50;99.90;;;;;;4066381;29;20441;-68
2023/08/19 03:54:42;;;;;;;8.68;7.00;;;19.50;99.90;;;;;;4065589;29;20096;-67
2023/08/19 03:56:43;;;;;;;13.40;7.32;;;19.50;99.90;;;;;;4066239;29;20028;-67
2023/08/19 03:58:47;;;;;;;11.55;8.52;;;19.60;99.90;;;;;;4065716;29;20032;-67
2023/08/19 04:00:49;;;;;;;8.27;7.25;;;19.70;99.90;;;;;;4065464;29;20111;-67
2023/08/19 04:02:50;;;;;;;9.27;7.10;;;19.90;99.90;;;;;;4066135;29;20449;-68
2023/08/19 04:05:05;;;;;;;9.02;6.72;;;20.00;99.90;;;;;;4065379;29;20091;-68
2023/08/19 04:07:06;;;;;;;8.38;6.30;;;20.10;99.90;;;;;;4066019;29;20040;-69
2023/08/19 04:09:08;;;;;;;7.43;6.72;;;20.30;99.90;;;;;;4064637;29;20048;-68
2023/08/19 04:11:09;;;;;;;8.45;7.05;;;20.40;99.90;;;;;;4066272;29;20112;-67
2023/08/19 04:13:10;;;;;;;10.13;7.47;;;20.60;99.90;;;;;;4065015;29;20032;-68
2023/08/19 04:15:11;;;;;;;12.90;7.43;;;20.50;99.90;;;;;;4066521;29;20091;-67
2023/08/19 04:17:12;;;;;;;11.32;7.03;;;20.50;99.90;;;;;;4064923;29;20075;-66
2023/08/19 04:19:13;;;;;;;12.13;7.00;;;20.70;99.90;;;;;;4065952;29;20473;-62
2023/08/19 04:21:14;;;;;;;10.15;7.40;;;20.80;99.90;;;;;;4064972;29;20040;-64
2023/08/19 04:23:15;;;;;;;10.80;7.15;;;21.00;99.90;;;;;;4064840;29;20036;-64
2023/08/19 04:25:17;;;;;;;10.57;7.80;;;21.30;99.90;;;;;;4064498;29;20190;-63
2023/08/19 04:27:19;;;;;;;11.77;7.70;;;21.50;99.90;;;;;;4065711;29;20083;-61
2023/08/19 04:29:20;;;;;;;15.05;8.95;;;21.80;99.90;;;;;;4064365;29;20091;-64
2023/08/19 04:31:21;;;;;;;17.15;9.57;;;22.00;99.90;;;;;;4065615;29;20088;-63
2023/08/19 04:33:23;;;;;;;11.55;8.35;;;22.20;99.90;;;;;;4065242;29;20052;-63
2023/08/19 04:35:28;;;;;;;14.00;8.55;;;22.30;99.90;;;;;;4065478;29;20464;-63
2023/08/19 04:37:29;;;;;;;13.15;10.98;;;22.50;99.90;;;;;;4065298;29;20103;-62
2023/08/19 04:39:30;;;;;;;16.55;11.32;;;22.50;99.90;;;;;;4064932;29;20433;-64
2023/08/19 04:41:32;;;;;;;15.77;12.82;;;22.70;99.90;;;;;;4065288;29;20501;-66
2023/08/19 04:43:33;;;;;;;13.82;11.82;;;22.70;99.90;;;;;;4064006;29;20036;-62
2023/08/19 04:45:34;;;;;;;17.73;13.02;;;22.70;99.90;;;;;;4065980;29;20056;-63
2023/08/19 04:47:35;;;;;;;19.45;13.55;;;22.80;99.90;;;;;;4064610;29;20032;-64
2023/08/19 04:49:36;;;;;;;21.05;15.30;;;22.90;99.90;;;;;;4065283;29;20437;-68
2023/08/19 04:51:38;;;;;;;25.30;14.20;;;23.00;99.90;;;;;;4064195;29;20035;-64
2023/08/19 04:53:39;;;;;;;14.32;10.15;;;23.10;99.90;;;;;;4065543;29;20096;-63
2023/08/19 04:55:40;;;;;;;14.52;10.65;;;23.50;99.90;;;;;;4064254;29;20036;-64
2023/08/19 04:57:42;;;;;;;12.82;10.40;;;23.70;99.90;;;;;;4065268;29;20399;-64
2023/08/19 04:59:43;;;;;;;10.27;8.65;;;24.00;99.90;;;;;;4063819;29;20107;-63
2023/08/19 05:01:44;;;;;;;20.20;10.13;;;24.30;99.90;;;;;;4065089;29;20032;-69
2023/08/19 05:03:45;;;;;;;13.52;9.13;;;24.70;99.90;;;;;;4064650;29;20080;-64
2023/08/19 05:05:47;;;;;;;12.75;9.40;;;25.00;99.90;;;;;;4064778;29;20107;-68
2023/08/19 05:07:48;;;;;;;10.68;8.32;;;25.20;99.90;;;;;;4063002;29;20095;-65
2023/08/19 05:09:49;;;;;;;11.40;8.05;;;25.50;99.90;;;;;;4064406;29;20044;-67
2023/08/19 05:11:50;;;;;;;14.20;7.05;;;25.80;99.90;;;;;;4065034;29;20635;-68
2023/08/19 05:13:51;;;;;;;13.82;7.18;;;26.10;99.90;;;;;;4063739;29;20108;-64
2023/08/19 05:15:52;;;;;;;7.97;7.18;;;26.30;99.90;;;;;;4065467;29;20486;-67
2023/08/19 05:17:53;;;;;;;13.52;6.60;;;26.50;99.90;;;;;;4064155;29;20032;-63
2023/08/19 05:19:55;;;;;;;8.27;6.65;;;27.00;99.90;;;;;;4065285;29;20431;-62
2023/08/19 05:21:56;;;;;;;9.45;6.88;;;27.30;99.90;;;;;;4063846;29;20127;-64
2023/08/19 05:23:57;;;;;;;9.32;7.55;;;27.20;99.90;;;;;;4064715;29;20036;-63
2023/08/19 05:25:58;;;;;;;10.80;7.53;;;27.30;99.90;;;;;;4064023;29;20099;-66
2023/08/19 05:27:59;;;;;;;13.98;9.73;;;27.20;99.90;;;;;;4064937;29;20071;-67
2023/08/19 05:30:01;;;;;;;12.10;9.35;;;27.20;99.90;;;;;;4063922;29;20051;-66
2023/08/19 05:32:03;;;;;;;14.55;9.68;;;27.00;99.90;;;;;;4063838;29;20056;-65
2023/08/19 05:34:06;;;;;;;15.77;10.98;;;27.00;99.90;;;;;;4063723;29;20135;-65
2023/08/19 05:36:07;;;;;;;16.33;11.20;;;27.10;99.90;;;;;;4064718;29;20024;-63
2023/08/19 05:38:09;;;;;;;18.48;10.90;;;27.20;99.90;;;;;;4064209;29;20488;-64
2023/08/19 05:40:11;;;;;;;17.65;11.65;;;27.30;99.90;;;;;;4064384;29;20087;-63
2023/08/19 05:42:12;;;;;;;19.30;10.43;;;27.20;99.90;;;;;;4064408;29;20044;-64
2023/08/19 05:44:13;;;;;;;11.48;10.27;;;27.40;99.90;;;;;;4064018;29;20047;-63
2023/08/19 05:46:14;;;;;;;25.67;12.77;;;27.60;99.90;;;;;;4064806;29;20544;-62
2023/08/19 05:48:15;;;;;;;19.13;11.40;;;27.40;99.90;;;;;;4063939;29;20461;-63
2023/08/19 05:50:17;;;;;;;17.25;10.93;;;27.20;99.90;;;;;;4064979;29;20104;-63
2023/08/19 05:52:18;;;;;;;15.63;10.32;;;27.40;99.90;;;;;;4063645;29;20060;-63
2023/08/19 05:54:19;;;;;;;16.60;10.32;;;27.70;99.90;;;;;;4065067;29;20103;-64
2023/08/19 05:56:20;;;;;;;16.17;11.40;;;28.10;99.90;;;;;;4063540;29;20126;-66
2023/08/19 05:58:21;;;;;;;16.67;10.93;;;28.20;99.90;;;;;;4063633;29;20048;-62
2023/08/19 06:00:23;;;;;;;22.80;11.73;;;28.00;99.90;;;;;;4063595;29;20092;-64
2023/08/19 06:02:24;;;;;;;18.50;10.60;;;27.70;99.90;;;;;;4064972;29;20104;-64
2023/08/19 06:04:25;;;;;;;23.15;10.52;;;27.60;99.90;;;;;;4063751;29;20039;-62
2023/08/19 06:06:26;;;;;;;26.50;10.18;;;27.00;99.90;;;;;;4063172;29;20056;-63
2023/08/19 06:08:27;;;;;;;15.20;10.20;;;26.80;99.90;;;;;;4063899;29;20544;-63
2023/08/19 06:10:29;;;;;;;19.02;9.90;;;26.70;99.90;;;;;;4064391;29;20032;-65
2023/08/19 06:12:30;;;;;;;20.40;10.60;;;27.10;99.90;;;;;;4064372;29;20447;-66
2023/08/19 06:14:31;;;;;;;17.63;10.25;;;27.50;99.90;;;;;;4062698;29;20485;-66
2023/08/19 06:16:32;;;;;;;18.58;10.27;;;28.00;99.90;;;;;;4064654;29;20028;-63
2023/08/19 06:18:34;;;;;;;16.73;9.77;;;28.30;99.90;;;;;;4063435;29;20040;-63
2023/08/19 06:20:35;;;;;;;23.70;10.00;;;28.10;99.90;;;;;;4064414;29;20096;-66
2023/08/19 06:22:36;;;;;;;17.30;9.05;;;28.00;99.90;;;;;;4062731;29;20056;-64
2023/08/19 06:24:37;;;;;;;15.32;9.20;;;28.40;99.90;;;;;;4063643;29;20111;-64
2023/08/19 06:26:38;;;;;;;12.32;8.20;;;28.40;99.90;;;;;;4063141;29;20052;-63
2023/08/19 06:28:39;;;;;;;14.75;8.88;;;28.50;99.90;;;;;;4064151;29;20032;-64
2023/08/19 06:30:41;;;;;;;16.15;8.23;;;28.10;99.90;;;;;;4063553;29;20162;-63
2023/08/19 06:32:43;;;;;;;12.68;8.15;;;28.20;99.90;;;;;;4064507;29;20052;-63
2023/08/19 06:34:45;;;;;;;10.60;8.15;;;28.30;99.90;;;;;;4063685;29;20036;-63
2023/08/19 06:36:51;;;;;;;12.57;8.45;;;28.30;99.90;;;;;;4064712;29;20056;-64
2023/08/19 06:39:18;;;;;;;16.88;8.00;;;28.70;99.90;;;;;;4063234;29;20037;-63
2023/08/19 06:41:19;;;;;;;11.75;7.63;;;28.80;99.90;;;;;;4064381;29;20032;-64
2023/08/19 06:43:24;;;;;;;13.25;7.10;;;28.40;99.90;;;;;;4063143;29;20059;-63
2023/08/19 06:45:26;;;;;;;13.10;6.80;;;28.00;99.90;;;;;;4064833;29;20095;-63
2023/08/19 06:47:31;;;;;;;9.00;7.15;;;28.00;99.90;;;;;;4066158;29;20083;-64
2023/08/19 06:49:32;;;;;;;9.05;6.20;;;28.20;99.90;;;;;;4066922;29;20437;-63
2023/08/19 06:51:34;;;;;;;9.25;6.90;;;28.30;99.90;;;;;;4066341;29;20083;-63
2023/08/19 06:53:35;;;;;;;8.75;7.05;;;28.30;99.90;;;;;;4066588;29;20040;-63
2023/08/19 06:55:41;;;;;;;10.50;6.57;;;28.20;99.90;;;;;;4066535;29;20477;-63
2023/08/19 06:57:47;;;;;;;9.77;8.52;;;28.30;99.90;;;;;;4066176;29;20036;-63
2023/08/19 06:59:56;;;;;;;10.13;7.63;;;28.50;99.90;;;;;;4066232;29;20488;-63
2023/08/19 07:02:03;;;;;;;12.85;7.68;;;28.50;99.90;;;;;;4066308;29;20040;-64
2023/08/19 07:04:05;;;;;;;10.02;7.18;;;28.50;99.90;;;;;;4066678;29;20048;-64
2023/08/19 07:06:07;;;;;;;10.77;7.55;;;28.50;99.90;;;;;;4065791;29;20872;-63
2023/08/19 07:08:10;;;;;;;10.52;6.70;;;28.20;99.90;;;;;;4066798;29;20480;-64
2023/08/19 07:10:13;;;;;;;9.57;6.80;;;28.20;99.90;;;;;;4065851;29;20024;-67
2023/08/19 07:12:14;;;;;;;6.95;6.03;;;27.80;99.90;;;;;;4067097;29;20525;-64
2023/08/19 07:14:16;;;;;;;11.75;7.07;;;27.70;99.90;;;;;;4065634;29;20536;-63
2023/08/19 07:16:19;;;;;;;7.88;6.07;;;27.90;99.90;;;;;;4067162;29;20040;-64
2023/08/19 07:18:24;;;;;;;11.30;6.90;;;27.90;99.90;;;;;;4065810;29;20032;-64
2023/08/19 07:20:26;;;;;;;12.18;7.53;;;27.80;99.90;;;;;;4066533;29;20025;-66
2023/08/19 07:22:27;;;;;;;9.73;7.15;;;28.00;99.90;;;;;;4065717;29;20099;-64
2023/08/19 07:24:30;;;;;;;8.63;7.03;;;27.80;99.90;;;;;;4066366;29;20020;-63
2023/08/19 07:26:32;;;;;;;8.57;6.82;;;27.90;99.90;;;;;;4065746;29;20028;-63
2023/08/19 07:28:34;;;;;;;11.05;7.00;;;28.00;99.90;;;;;;4064640;29;20028;-66
2023/08/19 07:30:35;;;;;;;12.85;6.78;;;28.20;99.90;;;;;;4065329;29;20032;-66
2023/08/19 07:32:38;;;;;;;8.93;6.63;;;28.20;99.90;;;;;;4069693;29;20082;-65
2023/08/19 07:34:39;;;;;;;8.68;6.88;;;28.30;99.90;;;;;;4066447;29;20044;-65
2023/08/19 07:36:42;;;;;;;9.52;6.78;;;28.30;99.90;;;;;;4070386;29;20095;-64
2023/08/19 07:38:46;;;;;;;9.10;6.20;;;28.20;99.90;;;;;;4065577;29;20040;-64
2023/08/19 07:40:47;;;;;;;8.90;5.93;;;28.30;99.90;;;;;;4071909;29;20079;-64
2023/08/19 07:42:48;;;;;;;8.65;7.00;;;28.70;99.90;;;;;;4066023;29;20056;-62
2023/08/19 07:44:49;;;;;;;9.05;6.15;;;29.00;99.90;;;;;;4070558;29;20439;-62
2023/08/19 07:46:50;;;;;;;8.43;6.70;;;29.00;99.90;;;;;;4069713;29;20446;-64
2023/08/19 07:48:52;;;;;;;7.32;6.13;;;28.70;99.90;;;;;;4075391;29;20052;-64
2023/08/19 07:50:53;;;;;;;11.27;6.50;;;28.70;99.90;;;;;;4077586;29;20094;-61
2023/08/19 07:52:55;;;;;;;8.32;6.50;;;28.60;99.90;;;;;;4072353;29;20044;-63
2023/08/19 07:54:57;;;;;;;7.60;6.63;;;28.70;99.90;;;;;;4079427;29;20031;-65
2023/08/19 07:56:59;;;;;;;7.00;5.65;;;28.90;99.90;;;;;;4068092;29;20091;-61
2023/08/19 07:59:00;;;;;;;10.13;5.82;;;28.90;99.90;;;;;;4064454;29;20481;-62
2023/08/19 08:01:01;;;;;;;6.63;6.07;;;28.90;99.90;;;;;;4064385;29;20454;-63
2023/08/19 08:03:03;;;;;;;9.32;6.05;;;29.00;99.90;;;;;;4065811;29;20056;-64
2023/08/19 08:05:04;;;;;;;7.72;5.55;;;29.10;99.90;;;;;;4066046;29;20107;-62
2023/08/19 08:07:05;;;;;;;7.40;5.07;;;29.40;99.90;;;;;;4065796;29;20040;-63
2023/08/19 08:09:06;;;;;;;6.88;5.20;;;29.50;99.90;;;;;;4078503;29;20044;-62
2023/08/19 08:11:08;;;;;;;9.18;5.13;;;29.60;99.90;;;;;;4074891;29;20036;-61
2023/08/19 08:13:09;;;;;;;10.27;6.97;;;29.70;99.90;;;;;;4067712;29;20458;-63
2023/08/19 08:15:10;;;;;;;5.80;4.75;;;29.80;99.90;;;;;;4080818;29;20370;-62
2023/08/19 08:17:11;;;;;;;5.32;4.63;;;29.60;99.90;;;;;;4080787;29;20492;-64
2023/08/19 08:19:12;;;;;;;8.95;4.50;;;29.40;99.70;;;;;;4079429;29;20106;-62
2023/08/19 08:21:19;;;;;;;5.45;4.43;;;29.30;99.60;;;;;;4066969;29;20512;-68
2023/08/19 08:23:20;;;;;;;5.10;3.95;;;29.20;99.50;;;;;;4064701;29;20512;-61
2023/08/19 08:25:22;;;;;;;7.22;4.10;;;29.40;99.40;;;;;;4065834;29;20040;-63
2023/08/19 08:27:24;;;;;;;5.85;4.05;;;29.30;99.50;;;;;;4064511;29;20146;-62
2023/08/19 08:29:25;;;;;;;4.88;3.85;;;29.50;99.00;;;;;;4064291;29;20082;-62
2023/08/19 08:31:26;;;;;;;4.88;4.38;;;29.50;98.70;;;;;;4069367;29;20445;-62
2023/08/19 08:33:27;;;;;;;4.18;3.78;;;29.50;98.70;;;;;;4081177;29;20492;-62
2023/08/19 08:35:28;;;;;;;11.45;4.32;;;29.50;98.70;;;;;;4079878;29;20283;-62
2023/08/19 08:37:29;;;;;;;5.25;3.83;;;29.70;98.60;;;;;;4080322;29;20043;-64
2023/08/19 08:39:31;;;;;;;5.45;3.70;;;29.60;98.40;;;;;;4078306;29;20087;-63
2023/08/19 08:41:36;;;;;;;5.15;3.95;;;29.50;98.30;;;;;;4078175;29;20039;-62
2023/08/19 08:43:38;;;;;;;4.55;4.15;;;29.50;98.40;;;;;;4074484;29;20056;-63
2023/08/19 08:45:41;;;;;;;10.10;4.38;;;29.50;98.30;;;;;;4080720;29;20028;-66
2023/08/19 08:47:42;;;;;;;4.60;4.28;;;29.60;98.30;;;;;;4078244;29;20099;-63
2023/08/19 08:49:46;;;;;;;6.75;4.22;;;29.60;98.20;;;;;;4080218;29;20068;-62
2023/08/19 08:51:47;;;;;;;4.95;4.30;;;29.80;98.10;;;;;;4080921;29;20036;-61
2023/08/19 08:53:49;;;;;;;10.95;4.78;;;29.90;98.10;;;;;;4079399;29;20047;-63
2023/08/19 08:55:53;;;;;;;10.10;4.53;;;30.00;98.00;;;;;;4079184;29;20563;-66
2023/08/19 08:57:54;;;;;;;6.53;4.40;;;30.10;97.90;;;;;;4071423;29;20023;-63
2023/08/19 08:59:56;;;;;;;7.05;4.38;;;30.20;97.70;;;;;;4079231;29;20500;-69
2023/08/19 09:01:58;;;;;;;6.68;4.47;;;30.30;97.50;;;;;;4074809;29;20099;-62
2023/08/19 09:04:04;;;;;;;17.00;5.70;;;30.30;97.30;;;;;;4072878;29;20103;-66
2023/08/19 09:06:14;;;;;;;4.20;3.88;;;30.30;97.20;;;;;;4064533;29;20103;-64
2023/08/19 09:08:17;;;;;;;6.03;3.67;;;30.20;97.40;;;;;;4070711;29;20421;-62
2023/08/19 09:10:22;;;;;;;13.55;4.55;;;30.20;97.50;;;;;;4068573;29;20032;-64
2023/08/19 09:12:25;;;;;;;8.55;4.55;;;30.40;97.50;;;;;;4067617;29;20552;-61
2023/08/19 09:14:45;;;;;;;7.35;4.18;;;30.30;97.40;;;;;;4063730;29;20096;-63
2023/08/19 09:16:47;;;;;;;5.22;3.90;;;30.30;97.20;;;;;;4071208;29;20040;-66
2023/08/19 09:18:48;;;;;;;6.53;4.28;;;30.40;97.10;;;;;;4063655;29;20031;-64
2023/08/19 09:20:49;;;;;;;4.40;4.03;;;30.30;97.00;;;;;;4064861;29;20087;-66
2023/08/19 09:22:51;;;;;;;5.50;3.80;;;30.30;97.00;;;;;;4063481;29;20040;-59
2023/08/19 09:24:53;;;;;;;8.05;4.45;;;30.30;96.80;;;;;;4064728;29;20032;-63
2023/08/19 09:26:57;;;;;;;6.40;4.30;;;30.30;96.90;;;;;;4063650;29;20036;-66
2023/08/19 09:28:58;;;;;;;5.35;3.85;;;30.40;97.00;;;;;;4068269;29;20561;-68
2023/08/19 09:31:00;;;;;;;4.03;3.58;;;30.60;96.60;;;;;;4067374;29;20363;-64
2023/08/19 09:33:01;;;;;;;5.78;4.30;;;30.80;96.20;;;;;;4064146;29;20028;-63
2023/08/19 09:35:09;;;;;;;5.07;3.65;;;30.80;96.10;;;;;;4063776;29;20036;-63
2023/08/19 09:37:11;;;;;;;4.25;3.78;;;31.10;96.00;;;;;;4065771;29;20044;-63
2023/08/19 09:39:12;;;;;;;3.70;3.28;;;31.20;95.70;;;;;;4065992;29;20032;-63
2023/08/19 09:41:13;;;;;;;6.60;3.65;;;31.30;95.30;;;;;;4069139;29;20091;-64
2023/08/19 09:43:14;;;;;;;5.18;3.42;;;31.10;95.30;;;;;;4065131;29;20103;-63
2023/08/19 09:45:20;;;;;;;7.22;4.25;;;30.80;95.20;;;;;;4063882;29;20032;-63
2023/08/19 09:47:22;;;;;;;4.32;3.92;;;30.70;95.20;;;;;;4064263;29;20048;-63
2023/08/19 09:49:23;;;;;;;4.00;3.33;;;30.80;95.30;;;;;;4066987;29;20084;-63
2023/08/19 09:51:25;;;;;;;3.45;3.15;;;30.90;95.10;;;;;;4064304;29;20036;-63
2023/08/19 09:53:31;;;;;;;6.57;3.13;;;30.90;94.80;;;;;;4063029;29;20096;-63
2023/08/19 09:55:33;;;;;;;4.38;3.22;;;31.00;94.60;;;;;;4061672;29;20465;-63
2023/08/19 09:57:34;;;;;;;7.47;3.45;;;30.90;94.60;;;;;;4063541;29;20549;-63
2023/08/19 09:59:37;;;;;;;3.72;3.42;;;30.80;94.50;;;;;;4064137;29;20119;-63
2023/08/19 10:01:38;;;;;;;9.23;3.95;;;30.90;94.30;;;;;;4063330;29;20315;-63
2023/08/19 10:03:40;;;;;;;7.80;3.50;;;31.00;94.20;;;;;;4064243;29;20410;-64
2023/08/19 10:05:44;;;;;;;3.55;3.25;;;31.10;94.10;;;;;;4063281;29;20088;-63
2023/08/19 10:07:52;;;;;;;4.15;3.80;;;31.00;94.20;;;;;;4063559;29;20095;-63
2023/08/19 10:09:54;;;;;;;8.68;3.20;;;31.10;94.30;;;;;;4063377;29;20044;-63
2023/08/19 10:11:59;;;;;;;4.50;3.05;;;31.20;94.30;;;;;;4063689;29;20497;-63
2023/08/19 10:14:04;;;;;;;4.82;3.30;;;31.30;94.10;;;;;;4063174;29;20072;-63
2023/08/19 10:16:06;;;;;;;8.23;3.67;;;31.40;93.50;;;;;;4064465;29;20402;-63
2023/08/19 10:18:29;;;;;;;6.18;3.90;;;31.50;93.30;;;;;;4063704;29;20040;-64
2023/08/19 10:20:32;;;;;;;3.83;3.40;;;31.50;92.90;;;;;;4065512;29;20036;-63
2023/08/19 10:22:36;;;;;;;5.10;3.50;;;31.70;93.30;;;;;;4065275;29;20104;-62
2023/08/19 10:24:39;;;;;;;5.10;3.20;;;31.90;92.90;;;;;;4066430;29;20390;-62
2023/08/19 10:26:40;;;;;;;3.55;3.22;;;31.90;93.30;;;;;;4067284;29;20024;-62
2023/08/19 10:28:41;;;;;;;3.30;3.00;;;31.70;92.50;;;;;;4066339;29;20028;-63
2023/08/19 10:30:42;;;;;;;5.70;3.45;;;31.60;92.30;;;;;;4067370;29;20048;-63
2023/08/19 10:32:43;;;;;;;6.53;3.13;;;31.40;92.10;;;;;;4063959;29;20108;-62